createdAt,value
2018-06-11T00:01:47.107Z,-63
2018-06-11T00:11:46.994Z,-62
2018-06-11T00:21:47.107Z,-63
2018-06-11T00:31:47.063Z,-61
2018-06-11T00:41:47.005Z,-63
2018-06-11T00:51:47.104Z,-61
2018-06-11T01:01:47.041Z,-61
2018-06-11T01:11:47.072Z,-63
2018-06-11T01:21:47.086Z,-62
2018-06-11T01:31:47.067Z,-62
2018-06-11T01:41:47.111Z,-64
2018-06-11T01:51:47.027Z,-64
2018-06-11T02:01:47.038Z,-63
2018-06-11T02:11:47.102Z,-63
2018-06-11T02:21:47.067Z,-63
2018-06-11T02:31:46.981Z,-61
2018-06-11T02:41:47.067Z,-63
2018-06-11T02:51:47.040Z,-63
2018-06-11T03:01:47.090Z,-62
2018-06-11T03:11:47.031Z,-61
2018-06-11T03:21:47.010Z,-62
2018-06-11T03:31:47.129Z,-63
2018-06-11T03:41:47.067Z,-63
2018-06-11T03:51:47.051Z,-63
2018-06-11T04:01:47.239Z,-63
2018-06-11T04:11:47.029Z,-62
2018-06-11T04:21:47.042Z,-65
2018-06-11T04:31:47.017Z,-64
2018-06-11T04:41:47.173Z,-63
2018-06-11T04:51:47.361Z,-62
2018-06-11T05:01:47.099Z,-62
2018-06-11T05:11:47.293Z,-63
2018-06-11T05:21:47.035Z,-65
2018-06-11T05:31:46.993Z,-64
2018-06-11T05:41:47.144Z,-63
2018-06-11T05:51:47.057Z,-62
2018-06-11T06:01:47.104Z,-64
2018-06-11T06:11:47.117Z,-64
2018-06-11T06:21:47.046Z,-65
2018-06-11T06:31:47.106Z,-61
2018-06-11T06:41:47.071Z,-62
2018-06-11T06:51:47.088Z,-62
2018-06-11T07:01:47.075Z,-61
2018-06-11T07:11:47.207Z,-61
2018-06-11T07:21:47.097Z,-62
2018-06-11T07:31:47.103Z,-61
2018-06-11T07:41:47.168Z,-62
2018-06-11T07:51:47.175Z,-61
2018-06-11T08:01:47.165Z,-63
2018-06-11T08:11:47.090Z,-63
2018-06-11T08:21:47.049Z,-62
2018-06-11T08:31:47.199Z,-66
2018-06-11T08:41:47.263Z,-63
2018-06-11T08:51:47.228Z,-63
2018-06-11T09:01:47.167Z,-63
2018-06-11T09:11:47.072Z,-62
2018-06-11T09:21:47.115Z,-62
2018-06-11T09:31:47.067Z,-61
2018-06-11T09:41:47.166Z,-61
2018-06-11T09:51:47.102Z,-60
2018-06-11T10:01:48.145Z,-61
2018-06-11T10:11:47.143Z,-62
2018-06-11T10:21:47.137Z,-61
2018-06-11T10:31:47.169Z,-61
2018-06-11T10:41:47.160Z,-58
2018-06-11T10:51:47.291Z,-61
2018-06-11T11:01:47.253Z,-61
2018-06-11T11:11:47.138Z,-61
2018-06-11T11:21:47.190Z,-59
2018-06-11T11:31:47.154Z,-62
2018-06-11T11:41:47.144Z,-62
2018-06-11T11:51:47.254Z,-61
2018-06-11T12:01:47.231Z,-62
2018-06-11T12:11:47.154Z,-62
2018-06-11T12:21:47.318Z,-61
2018-06-11T12:31:47.194Z,-61
2018-06-11T12:41:47.231Z,-61
2018-06-11T12:51:47.130Z,-61
2018-06-11T13:01:47.115Z,-61
2018-06-11T13:11:47.191Z,-61
2018-06-11T13:21:47.163Z,-61
2018-06-11T13:31:47.158Z,-61
2018-06-11T13:41:47.225Z,-61
2018-06-11T13:51:47.233Z,-60
2018-06-11T14:01:47.234Z,-61
2018-06-11T14:11:47.217Z,-61
2018-06-11T14:21:47.262Z,-61
2018-06-11T14:31:47.208Z,-61
2018-06-11T14:41:47.186Z,-61
2018-06-11T14:51:47.230Z,-61
2018-06-11T15:01:47.165Z,-61
2018-06-11T15:11:47.172Z,-62
2018-06-11T15:21:47.269Z,-61
2018-06-11T15:31:47.211Z,-62
2018-06-11T15:41:47.239Z,-61
2018-06-11T15:51:47.230Z,-64
2018-06-11T16:01:47.389Z,-64
2018-06-11T16:11:47.200Z,-62
2018-06-11T16:21:50.810Z,-60
2018-06-11T16:31:47.210Z,-59
2018-06-11T16:41:47.181Z,-58
2018-06-11T16:51:47.245Z,-56
2018-06-11T17:01:47.245Z,-57
2018-06-11T17:11:47.204Z,-58
2018-06-11T17:21:47.282Z,-58
2018-06-11T17:31:47.272Z,-59
2018-06-11T17:41:47.295Z,-58
2018-06-11T17:51:47.258Z,-59
2018-06-11T18:01:48.280Z,-58
2018-06-11T18:11:47.484Z,-58
2018-06-11T18:21:47.374Z,-59
2018-06-11T18:31:47.240Z,-60
2018-06-11T18:41:47.274Z,-59
2018-06-11T18:51:47.205Z,-58
2018-06-11T19:01:47.434Z,-58
2018-06-11T19:11:47.421Z,-59
2018-06-11T19:21:47.374Z,-58
2018-06-11T19:31:47.297Z,-59
2018-06-11T19:41:47.318Z,-60
2018-06-11T19:51:47.322Z,-58
2018-06-11T20:01:47.480Z,-56
2018-06-11T20:11:47.333Z,-58
2018-06-11T20:21:47.314Z,-57
2018-06-11T20:31:47.618Z,-59
2018-06-11T20:41:47.362Z,-59
2018-06-11T20:51:47.672Z,-60
2018-06-11T21:01:47.319Z,-69
2018-06-11T21:11:47.260Z,-65
2018-06-11T21:21:47.277Z,-64
2018-06-11T21:31:47.392Z,-64
2018-06-11T21:43:06.101Z,-67
2018-06-11T21:51:49.299Z,-62
2018-06-11T22:01:47.238Z,-65
2018-06-11T22:11:47.289Z,-62
2018-06-11T22:21:47.231Z,-63
2018-06-11T22:31:47.281Z,-64
2018-06-11T22:41:47.329Z,-63
2018-06-11T22:51:48.347Z,-65
2018-06-11T23:01:48.280Z,-66
2018-06-11T23:12:00.050Z,-65
2018-06-11T23:21:47.408Z,-64
2018-06-11T23:31:47.284Z,-65
2018-06-11T23:41:47.210Z,-67
2018-06-11T23:51:52.095Z,-64
